(°C)
-9°
-9°
-9°
-9°
-9°
-9°
-9°
(°C)
-14°
-14°
-14°
-14°
-14°
-14°
-13°
SV
SV
SV
SSV
SSV
SSV
SSV
(km/h)
9-14
9-13
9-13
9-12
9-12
9-12
9-11
(mm)
0
0
0
0
0
0
0
(%)
7
1
0
0
0
0
0

Elevația soarelui

/ -31.8°
sun-icon
UV 1
07:36
16:50
Al doilea pătrar (209°)
19:14
09:21

METAR pentru 46.38°N 44.32°E (URWI)

Ora Condiții Temperatură/
Punctul de rouă
Vânt Vizibilitate Vremea Nori Presiune Schimbă Brut
-9°C / °C 290º 8kt 9000m - 1020 Temporary: Visibility 0500. freezing Fog . Scattered Clouds 200ft. Broken Clouds 2000ft. Cumulonimbus URWI 201630Z 29004MPS 9000 SCT/// M09/M10 Q1020 TEMPO 0500 FZFG SCT002 BKN020CB
-9°C / °C 280º 8kt >10km - 1020 Temporary: Visibility 0500. freezing Fog . Scattered Clouds 200ft. Broken Clouds 2000ft. Cumulonimbus URWI 201600Z 28004MPS 9999 SCT/// M09/M10 Q1020 TEMPO 0500 FZFG SCT002 BKN020CB
-8°C / -9°C 280º 8kt 9000m - 1020 Temporary: Visibility 0500. freezing Fog . Scattered Clouds 200ft. Broken Clouds 2000ft. Cumulonimbus URWI 201530Z 28004MPS 9000 SCT/// M08/M09 Q1020 TEMPO 0500 FZFG SCT002 BKN020CB
-8°C / -9°C 290º 6kt >10km - 1019 Temporary: Visibility 0500. freezing Fog . Scattered Clouds 200ft. Broken Clouds 2000ft. Cumulonimbus URWI 201500Z 29003MPS 9999 SCT///CB M08/M09 Q1019 TEMPO 0500 FZFG SCT002 BKN020CB
VFR -6°C / -7°C 280º 8kt >10km - Scattered Clouds 2100ft 1020 Temporary: Visibility 0500. freezing Fog . Scattered Clouds 200ft. Broken Clouds 2000ft. Cumulonimbus . Runway 27: Dry snow, 51-100% contamination with 1mm, friction coefficient 0.37. URWI 201430Z 28004MPS 9999 SCT021CB M06/M07 Q1020 R27/490137 TEMPO 0500 FZFG SCT002 BKN020CB
-7°C / -9°C 280º 8kt >10km - 1019 No Significant change. Runway 27: Dry snow, 51-100% contamination with 1mm, friction coefficient 0.37. URWI 201400Z 28004MPS 9999 SCT///CB M07/M09 Q1019 R27/490137 NOSIG
-5°C / -8°C 280º 8kt >10km - 1019 No Significant change. Runway 27: Dry snow, 51-100% contamination with 1mm, friction coefficient 0.37. URWI 201330Z 28004MPS 9999 SCT///CB M05/M08 Q1019 R27/490137 NOSIG
VFR -4°C / -7°C 270º 10kt >10km - Scattered Clouds 2000ft 1019 No Significant change. Runway 27: Dry snow, 51-100% contamination with 1mm, friction coefficient 0.37. URWI 201300Z 27005MPS 9999 SCT020CB M04/M07 Q1019 R27/490137 NOSIG
VFR -4°C / -6°C 270º 8kt >10km - Scattered Clouds 2400ft 1018 Temporary: Visibility 1000. Showers Snow . Scattered Clouds 400ft. Broken Clouds 2000ft. Cumulonimbus . Runway 27: Dry snow, 51-100% contamination with 1mm, friction coefficient 0.37. URWI 201230Z 27004MPS 9999 SCT024CB M04/M06 Q1018 R27/490137 TEMPO 1000 SHSN SCT004 BKN020CB
IFR -4°C / -6°C 250º 6kt 4100m Light Showers Snow 3.00mm precipitation Vertical Visibility of 0ft.
Scattered Clouds 3200ft
1018 Temporary: Visibility 0300. Heavy Showers Snow . Scattered Clouds 200ft. Broken Clouds 2000ft. Cumulonimbus . Runway 27: Damp, 51-100% contamination with <1mm, friction coefficient 0.60. URWI 201200Z 25003MPS 4100 -SHSN FEW007 SCT032CB M04/M06 Q1018 RESHSN R27/190060 TEMPO 0300 +SHSN SCT002 BKN020CB
IFR -4°C / -6°C 260º 8kt 2800m Light Showers Snow 3.00mm precipitation Vertical Visibility of 0ft. 1018 Temporary: Visibility 0800. Heavy Showers Snow . Scattered Clouds 200ft. Broken Clouds 2000ft. Cumulonimbus . Runway 27: Damp, 51-100% contamination with <1mm, friction coefficient 0.60. URWI 201130Z 26004MPS 2800 -SHSN SCT022CB M04/M06 Q1018 RESHSN R27/190060 TEMPO 0800 +SHSN SCT002 BKN020CB
MVFR -4°C / -7°C 260º 8kt 8000m Light Showers Snow 3.00mm precipitation Vertical Visibility of 0ft. 1018 Temporary: Visibility 0800. Heavy Showers Snow . Scattered Clouds 200ft. Broken Clouds 2000ft. Cumulonimbus . Runway 27: Damp, 51-100% contamination with <1mm, friction coefficient 0.60. URWI 201100Z 26004MPS 8000 -SHSN FEW/// BKN034CB M04/M07 Q1018 R27/190060 TEMPO 0800 +SHSN SCT002 BKN020CB
IFR -3°C / -6°C 240º variable 200º to 280º 4kt 3900m Light Showers Snow 3.00mm precipitation Vertical Visibility of 0ft.
Broken Clouds 3200ft
1018 Temporary: Visibility 0500. Heavy Showers Snow . Scattered Clouds 200ft. Broken Clouds 2000ft. Cumulonimbus . Runway 27: Clear and dry, 1-10% contamination with <1mm, friction coefficient 0.65. URWI 201030Z 24002MPS 200V280 3900 -SHSN FEW009 BKN032CB M03/M06 Q1018 RESHSN R27/010065 TEMPO 0500 +SHSN SCT002 BKN020CB
MVFR -3°C / -7°C 250º variable 220º to 280º 6kt 5000m Light Showers Snow 3.00mm precipitation Vertical Visibility of 0ft.
Broken Clouds 3400ft
1018 Temporary: Visibility 0500. Heavy Showers Snow . Scattered Clouds 200ft. Broken Clouds 2000ft. Cumulonimbus . Runway 27: Clear and dry, 1-10% contamination with <1mm, friction coefficient 0.65. URWI 201000Z 25003MPS 220V280 5000 -SHSN FEW012 BKN034CB M03/M07 Q1018 R27/010065 TEMPO 0500 +SHSN SCT002 BKN020CB
VFR -3°C / -8°C 250º variable 220º to 300º 6kt >10km - Scattered Clouds 1700ft 1019 No Significant change. Runway 27: Dry snow, 51-100% contamination with 1mm, friction coefficient 0.54. URWI 200930Z 25003MPS 220V300 9999 SCT017CB M03/M08 Q1019 R27/490154 NOSIG
MVFR -3°C / -8°C 250º 8kt >10km - Broken Clouds 1500ft 1019 Temporary: Scattered Clouds 500ft. . Runway 27: Dry snow, 51-100% contamination with 1mm, friction coefficient 0.54. URWI 200900Z 25004MPS 9999 BKN015 M03/M08 Q1019 R27/490154 TEMPO SCT005
MVFR -4°C / -7°C 230º 6kt >10km - Broken Clouds 1400ft 1019 Temporary: Scattered Clouds 500ft. . Runway 27: Dry snow, 51-100% contamination with 1mm, friction coefficient 0.54. URWI 200830Z 23003MPS 9999 BKN014 M04/M07 Q1019 R27/490154 TEMPO SCT005
MVFR -4°C / -7°C 250º 10kt >10km - Broken Clouds 1300ft 1019 Temporary: Scattered Clouds 500ft. . Runway 27: Dry snow, 51-100% contamination with 1mm, friction coefficient 0.54. URWI 200800Z 25005MPS 9999 BKN013 M04/M07 Q1019 R27/490154 TEMPO SCT005
MVFR -4°C / -6°C 240º 6kt >10km - Broken Clouds 1000ft 1019 Temporary: Scattered Clouds 500ft. . Runway 27: Dry snow, 51-100% contamination with 1mm, friction coefficient 0.54. URWI 200730Z 24003MPS 9999 BKN010 M04/M06 Q1019 R27/490154 TEMPO SCT005
MVFR -4°C / -6°C 250º 8kt >10km - Broken Clouds 1100ft 1019 Temporary: Visibility 1000. Showers Snow . Mist . Scattered Clouds 400ft. Scattered Clouds 2000ft. Cumulonimbus . Runway 27: Dry snow, 51-100% contamination with 1mm, friction coefficient 0.54. URWI 200700Z 25004MPS 9999 BKN011 M04/M06 Q1019 R27/490154 TEMPO 1000 SHSN BR SCT004 SCT020CB
IFR -4°C / -6°C 230º variable 200º to 260º 6kt >10km - Broken Clouds 700ft 1019 Temporary: Visibility 1000. Showers Snow . Mist . Scattered Clouds 400ft. Scattered Clouds 2000ft. Cumulonimbus . Runway 27: Dry snow, 51-100% contamination with 1mm, friction coefficient 0.54. URWI 200630Z 23003MPS 200V260 9999 BKN007 M04/M06 Q1019 R27/490154 TEMPO 1000 SHSN BR SCT004 SCT020CB
VFR -5°C / -6°C 220º 8kt >10km - Scattered Clouds 800ft
Broken Clouds 3100ft
1019 Temporary: Visibility 1000. Showers Snow . Mist . Scattered Clouds 400ft. Scattered Clouds 2000ft. Cumulonimbus . Runway 27: Dry snow, 51-100% contamination with 1mm, friction coefficient 0.54. URWI 200600Z 22004MPS 9999 SCT008 BKN031CB M05/M06 Q1019 R27/490154 TEMPO 1000 SHSN BR SCT004 SCT020CB
MVFR -6°C / -7°C 230º 6kt 8000m Light Showers Snow 3.00mm precipitation Vertical Visibility of 0ft.
Broken Clouds 3300ft
1019 Temporary: Visibility 1000. Showers Snow . Scattered Clouds 700ft. Scattered Clouds 2000ft. Cumulonimbus . Runway 27: Dry snow, 51-100% contamination with 1mm, friction coefficient 0.54. URWI 200530Z 23003MPS 8000 -SHSN SCT012 BKN033CB M06/M07 Q1019 R27/490154 TEMPO 1000 SHSN SCT007 SCT020CB
-6°C / -7°C 230º 6kt 8000m - 1019 - URWI 200500Z AUTO 23003MPS 8000 // ///016/// M06/M07 Q1019

-9°C / °C

[Mai mult]
Vânt 290º 8kt
Vizibilitate 9000m
Vremea -
Nori
Presiune 1020
Schimbă Temporary: Visibility 0500. freezing Fog . Scattered Clouds 200ft. Broken Clouds 2000ft. Cumulonimbus
Brut URWI 201630Z 29004MPS 9000 SCT/// M09/M10 Q1020 TEMPO 0500 FZFG SCT002 BKN020CB

-9°C / °C

[Mai mult]
Vânt 280º 8kt
Vizibilitate >10km
Vremea -
Nori
Presiune 1020
Schimbă Temporary: Visibility 0500. freezing Fog . Scattered Clouds 200ft. Broken Clouds 2000ft. Cumulonimbus
Brut URWI 201600Z 28004MPS 9999 SCT/// M09/M10 Q1020 TEMPO 0500 FZFG SCT002 BKN020CB

-8°C / -9°C

[Mai mult]
Vânt 280º 8kt
Vizibilitate 9000m
Vremea -
Nori
Presiune 1020
Schimbă Temporary: Visibility 0500. freezing Fog . Scattered Clouds 200ft. Broken Clouds 2000ft. Cumulonimbus
Brut URWI 201530Z 28004MPS 9000 SCT/// M08/M09 Q1020 TEMPO 0500 FZFG SCT002 BKN020CB

-8°C / -9°C

[Mai mult]
Vânt 290º 6kt
Vizibilitate >10km
Vremea -
Nori
Presiune 1019
Schimbă Temporary: Visibility 0500. freezing Fog . Scattered Clouds 200ft. Broken Clouds 2000ft. Cumulonimbus
Brut URWI 201500Z 29003MPS 9999 SCT///CB M08/M09 Q1019 TEMPO 0500 FZFG SCT002 BKN020CB

VFR

-6°C / -7°C

[Mai mult]
Vânt 280º 8kt
Vizibilitate >10km
Vremea -
Nori Scattered Clouds 2100ft
Presiune 1020
Schimbă Temporary: Visibility 0500. freezing Fog . Scattered Clouds 200ft. Broken Clouds 2000ft. Cumulonimbus . Runway 27: Dry snow, 51-100% contamination with 1mm, friction coefficient 0.37.
Brut URWI 201430Z 28004MPS 9999 SCT021CB M06/M07 Q1020 R27/490137 TEMPO 0500 FZFG SCT002 BKN020CB

-7°C / -9°C

[Mai mult]
Vânt 280º 8kt
Vizibilitate >10km
Vremea -
Nori
Presiune 1019
Schimbă No Significant change. Runway 27: Dry snow, 51-100% contamination with 1mm, friction coefficient 0.37.
Brut URWI 201400Z 28004MPS 9999 SCT///CB M07/M09 Q1019 R27/490137 NOSIG

-5°C / -8°C

[Mai mult]
Vânt 280º 8kt
Vizibilitate >10km
Vremea -
Nori
Presiune 1019
Schimbă No Significant change. Runway 27: Dry snow, 51-100% contamination with 1mm, friction coefficient 0.37.
Brut URWI 201330Z 28004MPS 9999 SCT///CB M05/M08 Q1019 R27/490137 NOSIG

VFR

-4°C / -7°C

[Mai mult]
Vânt 270º 10kt
Vizibilitate >10km
Vremea -
Nori Scattered Clouds 2000ft
Presiune 1019
Schimbă No Significant change. Runway 27: Dry snow, 51-100% contamination with 1mm, friction coefficient 0.37.
Brut URWI 201300Z 27005MPS 9999 SCT020CB M04/M07 Q1019 R27/490137 NOSIG

VFR

-4°C / -6°C

[Mai mult]
Vânt 270º 8kt
Vizibilitate >10km
Vremea -
Nori Scattered Clouds 2400ft
Presiune 1018
Schimbă Temporary: Visibility 1000. Showers Snow . Scattered Clouds 400ft. Broken Clouds 2000ft. Cumulonimbus . Runway 27: Dry snow, 51-100% contamination with 1mm, friction coefficient 0.37.
Brut URWI 201230Z 27004MPS 9999 SCT024CB M04/M06 Q1018 R27/490137 TEMPO 1000 SHSN SCT004 BKN020CB

IFR

-4°C / -6°C

[Mai mult]
Vânt 250º 6kt
Vizibilitate 4100m
Vremea Light Showers Snow 3.00mm precipitation
Nori Vertical Visibility of 0ft.
Scattered Clouds 3200ft
Presiune 1018
Schimbă Temporary: Visibility 0300. Heavy Showers Snow . Scattered Clouds 200ft. Broken Clouds 2000ft. Cumulonimbus . Runway 27: Damp, 51-100% contamination with <1mm, friction coefficient 0.60.
Brut URWI 201200Z 25003MPS 4100 -SHSN FEW007 SCT032CB M04/M06 Q1018 RESHSN R27/190060 TEMPO 0300 +SHSN SCT002 BKN020CB

IFR

-4°C / -6°C

[Mai mult]
Vânt 260º 8kt
Vizibilitate 2800m
Vremea Light Showers Snow 3.00mm precipitation
Nori Vertical Visibility of 0ft.
Presiune 1018
Schimbă Temporary: Visibility 0800. Heavy Showers Snow . Scattered Clouds 200ft. Broken Clouds 2000ft. Cumulonimbus . Runway 27: Damp, 51-100% contamination with <1mm, friction coefficient 0.60.
Brut URWI 201130Z 26004MPS 2800 -SHSN SCT022CB M04/M06 Q1018 RESHSN R27/190060 TEMPO 0800 +SHSN SCT002 BKN020CB

MVFR

-4°C / -7°C

[Mai mult]
Vânt 260º 8kt
Vizibilitate 8000m
Vremea Light Showers Snow 3.00mm precipitation
Nori Vertical Visibility of 0ft.
Presiune 1018
Schimbă Temporary: Visibility 0800. Heavy Showers Snow . Scattered Clouds 200ft. Broken Clouds 2000ft. Cumulonimbus . Runway 27: Damp, 51-100% contamination with <1mm, friction coefficient 0.60.
Brut URWI 201100Z 26004MPS 8000 -SHSN FEW/// BKN034CB M04/M07 Q1018 R27/190060 TEMPO 0800 +SHSN SCT002 BKN020CB

IFR

-3°C / -6°C

[Mai mult]
Vânt 240º variable 200º to 280º 4kt
Vizibilitate 3900m
Vremea Light Showers Snow 3.00mm precipitation
Nori Vertical Visibility of 0ft.
Broken Clouds 3200ft
Presiune 1018
Schimbă Temporary: Visibility 0500. Heavy Showers Snow . Scattered Clouds 200ft. Broken Clouds 2000ft. Cumulonimbus . Runway 27: Clear and dry, 1-10% contamination with <1mm, friction coefficient 0.65.
Brut URWI 201030Z 24002MPS 200V280 3900 -SHSN FEW009 BKN032CB M03/M06 Q1018 RESHSN R27/010065 TEMPO 0500 +SHSN SCT002 BKN020CB

MVFR

-3°C / -7°C

[Mai mult]
Vânt 250º variable 220º to 280º 6kt
Vizibilitate 5000m
Vremea Light Showers Snow 3.00mm precipitation
Nori Vertical Visibility of 0ft.
Broken Clouds 3400ft
Presiune 1018
Schimbă Temporary: Visibility 0500. Heavy Showers Snow . Scattered Clouds 200ft. Broken Clouds 2000ft. Cumulonimbus . Runway 27: Clear and dry, 1-10% contamination with <1mm, friction coefficient 0.65.
Brut URWI 201000Z 25003MPS 220V280 5000 -SHSN FEW012 BKN034CB M03/M07 Q1018 R27/010065 TEMPO 0500 +SHSN SCT002 BKN020CB

VFR

-3°C / -8°C

[Mai mult]
Vânt 250º variable 220º to 300º 6kt
Vizibilitate >10km
Vremea -
Nori Scattered Clouds 1700ft
Presiune 1019
Schimbă No Significant change. Runway 27: Dry snow, 51-100% contamination with 1mm, friction coefficient 0.54.
Brut URWI 200930Z 25003MPS 220V300 9999 SCT017CB M03/M08 Q1019 R27/490154 NOSIG

MVFR

-3°C / -8°C

[Mai mult]
Vânt 250º 8kt
Vizibilitate >10km
Vremea -
Nori Broken Clouds 1500ft
Presiune 1019
Schimbă Temporary: Scattered Clouds 500ft. . Runway 27: Dry snow, 51-100% contamination with 1mm, friction coefficient 0.54.
Brut URWI 200900Z 25004MPS 9999 BKN015 M03/M08 Q1019 R27/490154 TEMPO SCT005

MVFR

-4°C / -7°C

[Mai mult]
Vânt 230º 6kt
Vizibilitate >10km
Vremea -
Nori Broken Clouds 1400ft
Presiune 1019
Schimbă Temporary: Scattered Clouds 500ft. . Runway 27: Dry snow, 51-100% contamination with 1mm, friction coefficient 0.54.
Brut URWI 200830Z 23003MPS 9999 BKN014 M04/M07 Q1019 R27/490154 TEMPO SCT005

MVFR

-4°C / -7°C

[Mai mult]
Vânt 250º 10kt
Vizibilitate >10km
Vremea -
Nori Broken Clouds 1300ft
Presiune 1019
Schimbă Temporary: Scattered Clouds 500ft. . Runway 27: Dry snow, 51-100% contamination with 1mm, friction coefficient 0.54.
Brut URWI 200800Z 25005MPS 9999 BKN013 M04/M07 Q1019 R27/490154 TEMPO SCT005

MVFR

-4°C / -6°C

[Mai mult]
Vânt 240º 6kt
Vizibilitate >10km
Vremea -
Nori Broken Clouds 1000ft
Presiune 1019
Schimbă Temporary: Scattered Clouds 500ft. . Runway 27: Dry snow, 51-100% contamination with 1mm, friction coefficient 0.54.
Brut URWI 200730Z 24003MPS 9999 BKN010 M04/M06 Q1019 R27/490154 TEMPO SCT005

MVFR

-4°C / -6°C

[Mai mult]
Vânt 250º 8kt
Vizibilitate >10km
Vremea -
Nori Broken Clouds 1100ft
Presiune 1019
Schimbă Temporary: Visibility 1000. Showers Snow . Mist . Scattered Clouds 400ft. Scattered Clouds 2000ft. Cumulonimbus . Runway 27: Dry snow, 51-100% contamination with 1mm, friction coefficient 0.54.
Brut URWI 200700Z 25004MPS 9999 BKN011 M04/M06 Q1019 R27/490154 TEMPO 1000 SHSN BR SCT004 SCT020CB

IFR

-4°C / -6°C

[Mai mult]
Vânt 230º variable 200º to 260º 6kt
Vizibilitate >10km
Vremea -
Nori Broken Clouds 700ft
Presiune 1019
Schimbă Temporary: Visibility 1000. Showers Snow . Mist . Scattered Clouds 400ft. Scattered Clouds 2000ft. Cumulonimbus . Runway 27: Dry snow, 51-100% contamination with 1mm, friction coefficient 0.54.
Brut URWI 200630Z 23003MPS 200V260 9999 BKN007 M04/M06 Q1019 R27/490154 TEMPO 1000 SHSN BR SCT004 SCT020CB

VFR

-5°C / -6°C

[Mai mult]
Vânt 220º 8kt
Vizibilitate >10km
Vremea -
Nori Scattered Clouds 800ft
Broken Clouds 3100ft
Presiune 1019
Schimbă Temporary: Visibility 1000. Showers Snow . Mist . Scattered Clouds 400ft. Scattered Clouds 2000ft. Cumulonimbus . Runway 27: Dry snow, 51-100% contamination with 1mm, friction coefficient 0.54.
Brut URWI 200600Z 22004MPS 9999 SCT008 BKN031CB M05/M06 Q1019 R27/490154 TEMPO 1000 SHSN BR SCT004 SCT020CB

MVFR

-6°C / -7°C

[Mai mult]
Vânt 230º 6kt
Vizibilitate 8000m
Vremea Light Showers Snow 3.00mm precipitation
Nori Vertical Visibility of 0ft.
Broken Clouds 3300ft
Presiune 1019
Schimbă Temporary: Visibility 1000. Showers Snow . Scattered Clouds 700ft. Scattered Clouds 2000ft. Cumulonimbus . Runway 27: Dry snow, 51-100% contamination with 1mm, friction coefficient 0.54.
Brut URWI 200530Z 23003MPS 8000 -SHSN SCT012 BKN033CB M06/M07 Q1019 R27/490154 TEMPO 1000 SHSN SCT007 SCT020CB

-6°C / -7°C

[Mai mult]
Vânt 230º 6kt
Vizibilitate 8000m
Vremea -
Nori
Presiune 1019
Schimbă -
Brut URWI 200500Z AUTO 23003MPS 8000 // ///016/// M06/M07 Q1019

TAF pentru 46.38°N 44.32°E (URWI)

From till


From till Wind 250º 6kt. Gust 19kt. Visibility 6000m. Broken Clouds 1600ft. Scattered Clouds 3000ft.
Temporarly from till Wind 220º 6kt. Gust 16kt. Visibility 2000m. Showers Snow Mist . Scattered Clouds 500ft. Broken Clouds 2000ft.

Brut: TAF URWI 201355Z 2015/2024 25003G10MPS 6000 BKN016 SCT030CB TEMPO 2015/2024 22003G08MPS 2000 SHSN BR SCT005 BKN020CB

Radar și nowcast de precipitații pentru 46.38°N 44.32°E

Burniță
Ușoară
Moderat
Greu
Foarte greu
Grindină

Markerul de locație este plasat în 46.38°N 44.32°E. Această animație arată radarul de precipitații pentru ultima oră, precum și o 1h prognoză. Ploaia sau ninsoarea slabă ar putea fi invizibilă pentru radar. Intensitatea precipitațiilor este codificată prin culori, de la albastru deschis la portocaliu.

Imagini satelitare și ploaie pentru 46.38°N 44.32°E

Markerul cu locaţia este poziţionat pe 46.38°N 44.32°E. [Mai mult]

Imaginea satelitară în timp real combină lumina vizibilă din timpul zilei cu radiația cu infraroșu din timpul nopții. Pe timp de noapte, imaginea nu este întunecată, deoarece radiația cu infraroșu poate detecta diferențele de temperatură. Din păcate, norii joși și ceața sunt greu de recunoscut față de temperatura de la sol, din această cauză putând fi invizibili pe timp de noapte. Imaginile satelitare Meteosat pentru Europa sunt actualizate în timp real din 5 în 5 minute. Imaginile GOES-16/GOES-17 (America de Nord și de Sud) și Himawari (Asia) sunt actualizate din 10 în 10 minute.

Toate drepturile rezervate 2022 EUMETSAT / meteoblue. / Toate drepturile rezervate 2022 meteoblue